createdAt,value
2022-11-15T00:01:28.914Z,4.35
2022-11-15T00:04:14.046Z,5.45
2022-11-15T00:06:59.164Z,4.32
2022-11-15T00:09:46.117Z,4.28
2022-11-15T00:12:31.532Z,4.25
2022-11-15T00:15:16.611Z,5.07
2022-11-15T00:18:01.860Z,5.57
2022-11-15T00:20:47.185Z,5.63
2022-11-15T00:23:32.533Z,5.38
2022-11-15T00:26:18.572Z,4.68
2022-11-15T00:29:03.799Z,5.35
2022-11-15T00:31:48.706Z,3.83
2022-11-15T00:34:33.713Z,4.47
2022-11-15T00:37:18.747Z,4.63
2022-11-15T00:40:03.948Z,5.35
2022-11-15T00:42:49.010Z,5.03
2022-11-15T00:45:34.146Z,4.18
2022-11-15T00:48:19.450Z,4.85
2022-11-15T00:51:04.828Z,4.13
2022-11-15T00:53:50.200Z,3.90
2022-11-15T00:56:35.466Z,4.90
2022-11-15T00:59:20.630Z,4.88
2022-11-15T01:02:05.838Z,5.72
2022-11-15T01:04:50.673Z,4.32
2022-11-15T01:07:36.589Z,5.28
2022-11-15T01:10:22.096Z,4.70
2022-11-15T01:13:07.386Z,4.97
2022-11-15T01:15:52.591Z,4.32
2022-11-15T01:18:37.787Z,5.07
2022-11-15T01:21:22.791Z,5.18
2022-11-15T01:24:08.846Z,5.53
2022-11-15T01:26:53.826Z,4.95
2022-11-15T01:29:38.745Z,4.13
2022-11-15T01:32:23.995Z,4.53
2022-11-15T01:35:09.260Z,5.05
2022-11-15T01:37:54.520Z,4.28
2022-11-15T01:40:39.831Z,4.60
2022-11-15T01:43:25.684Z,4.78
2022-11-15T01:46:30.565Z,5.70
2022-11-15T01:49:18.375Z,5.80
2022-11-15T01:52:06.230Z,4.78
2022-11-15T01:54:56.045Z,4.68
2022-11-15T01:57:43.122Z,4.55
2022-11-15T02:00:29.266Z,4.20
2022-11-15T02:03:14.701Z,4.53
2022-11-15T02:06:00.144Z,4.28
2022-11-15T02:08:45.714Z,3.90
2022-11-15T02:11:30.775Z,4.30
2022-11-15T02:14:17.701Z,5.00
2022-11-15T02:17:14.268Z,4.15
2022-11-15T02:20:33.240Z,4.30
2022-11-15T02:23:36.591Z,4.55
2022-11-15T02:27:03.072Z,3.45
2022-11-15T02:30:15.406Z,3.63
2022-11-15T02:33:26.644Z,3.33
2022-11-15T02:36:21.263Z,3.40
2022-11-15T02:39:18.345Z,4.95
2022-11-15T02:42:05.594Z,4.53
2022-11-15T02:44:51.347Z,5.78
2022-11-15T02:47:43.646Z,4.88
2022-11-15T02:50:30.405Z,6.38
2022-11-15T02:53:16.082Z,4.75
2022-11-15T02:56:01.332Z,3.78
2022-11-15T02:59:05.461Z,4.47
2022-11-15T03:02:19.435Z,3.60
2022-11-15T03:05:08.396Z,3.35
2022-11-15T03:08:03.632Z,4.75
2022-11-15T03:11:08.404Z,4.88
2022-11-15T03:14:03.802Z,3.83
2022-11-15T03:16:51.717Z,4.32
2022-11-15T03:19:48.594Z,3.42
2022-11-15T03:22:43.895Z,4.72
2022-11-15T03:25:30.063Z,3.83
2022-11-15T03:28:21.989Z,4.10
2022-11-15T03:31:27.622Z,3.35
2022-11-15T03:34:20.283Z,5.15
2022-11-15T03:37:05.989Z,4.97
2022-11-15T03:39:51.071Z,5.07
2022-11-15T03:42:47.933Z,3.95
2022-11-15T03:45:37.791Z,4.57
2022-11-15T03:48:26.162Z,3.25
2022-11-15T03:51:11.949Z,3.63
2022-11-15T03:53:57.296Z,3.95
2022-11-15T03:56:42.432Z,4.38
2022-11-15T03:59:27.623Z,4.72
2022-11-15T04:02:13.979Z,5.82
2022-11-15T04:04:59.153Z,3.83
2022-11-15T04:07:44.386Z,3.85
2022-11-15T04:10:29.660Z,3.92
2022-11-15T04:13:14.662Z,4.80
2022-11-15T04:15:59.770Z,4.22
2022-11-15T04:18:44.941Z,4.20
2022-11-15T04:21:49.249Z,6.30
2022-11-15T04:24:34.377Z,4.47
2022-11-15T04:27:19.346Z,3.75
2022-11-15T04:30:04.797Z,3.72
2022-11-15T04:32:50.053Z,4.40
2022-11-15T04:35:35.245Z,4.57
2022-11-15T04:38:20.528Z,3.72
2022-11-15T04:41:05.755Z,3.80
2022-11-15T04:43:51.006Z,4.03
2022-11-15T04:46:36.553Z,4.35
2022-11-15T04:49:21.768Z,4.75
2022-11-15T04:52:07.004Z,4.25
2022-11-15T04:54:52.219Z,4.10
2022-11-15T04:57:38.559Z,4.65
2022-11-15T05:00:24.050Z,4.50
2022-11-15T05:03:29.284Z,3.95
2022-11-15T05:06:14.855Z,5.72
2022-11-15T05:09:00.265Z,3.58
2022-11-15T05:11:45.968Z,5.07
2022-11-15T05:14:31.137Z,3.67
2022-11-15T05:17:16.070Z,4.22
2022-11-15T05:20:01.339Z,4.18
2022-11-15T05:22:46.402Z,4.97
2022-11-15T05:25:31.667Z,3.80
2022-11-15T05:28:16.973Z,4.72
2022-11-15T05:31:11.922Z,4.13
2022-11-15T05:33:57.526Z,3.22
2022-11-15T05:36:43.882Z,4.80
2022-11-15T05:39:29.144Z,3.40
2022-11-15T05:42:15.569Z,3.60
2022-11-15T05:45:01.590Z,4.68
2022-11-15T05:47:50.398Z,4.63
2022-11-15T05:50:37.412Z,4.93
2022-11-15T05:53:23.595Z,3.88
2022-11-15T05:56:10.056Z,4.25
2022-11-15T05:58:59.503Z,4.55
2022-11-15T06:01:45.030Z,3.63
2022-11-15T06:04:30.211Z,3.90
2022-11-15T06:07:15.493Z,4.80
2022-11-15T06:10:00.731Z,4.45
2022-11-15T06:12:45.990Z,3.80
2022-11-15T06:15:30.985Z,3.67
2022-11-15T06:18:16.262Z,3.83
2022-11-15T06:21:01.807Z,3.92
2022-11-15T06:23:46.786Z,4.30
2022-11-15T06:26:32.275Z,4.65
2022-11-15T06:29:17.180Z,3.53
2022-11-15T06:32:02.420Z,3.75
2022-11-15T06:34:47.301Z,4.45
2022-11-15T06:37:32.389Z,4.45
2022-11-15T06:40:17.561Z,3.95
2022-11-15T06:43:04.146Z,3.95
2022-11-15T06:45:49.065Z,3.83
2022-11-15T06:48:34.674Z,5.13
2022-11-15T06:51:20.282Z,3.40
2022-11-15T06:54:05.767Z,4.82
2022-11-15T06:56:51.255Z,4.45
2022-11-15T06:59:40.440Z,4.70
2022-11-15T07:02:26.263Z,4.65
2022-11-15T07:05:12.097Z,4.00
2022-11-15T07:07:58.475Z,3.13
2022-11-15T07:10:43.641Z,3.97
2022-11-15T07:13:30.315Z,4.57
2022-11-15T07:16:15.705Z,4.13
2022-11-15T07:19:00.816Z,3.80
2022-11-15T07:21:46.083Z,3.60
2022-11-15T07:24:31.313Z,4.20
2022-11-15T07:27:16.531Z,3.67
2022-11-15T07:30:01.780Z,4.60
2022-11-15T07:32:47.589Z,4.40
2022-11-15T07:35:32.583Z,4.90
2022-11-15T07:38:21.297Z,3.70
2022-11-15T07:41:06.853Z,5.43
2022-11-15T07:43:54.882Z,5.50
2022-11-15T07:46:39.770Z,4.20
2022-11-15T07:49:24.944Z,4.95
2022-11-15T07:52:09.789Z,5.10
2022-11-15T07:54:55.088Z,4.88
2022-11-15T07:57:40.460Z,4.28
2022-11-15T08:00:25.698Z,5.30
2022-11-15T08:03:13.128Z,4.78
2022-11-15T08:05:58.031Z,4.40
2022-11-15T08:08:43.315Z,4.75
2022-11-15T08:11:28.800Z,4.13
2022-11-15T08:14:13.701Z,4.78
2022-11-15T08:16:59.323Z,5.97
2022-11-15T08:19:44.650Z,6.80
2022-11-15T08:22:29.985Z,6.03
2022-11-15T08:25:16.265Z,5.45
2022-11-15T08:28:04.468Z,4.18
2022-11-15T08:30:49.520Z,5.07
2022-11-15T08:33:36.711Z,4.60
2022-11-15T08:36:21.942Z,4.57
2022-11-15T08:39:07.179Z,4.55
2022-11-15T08:41:52.319Z,4.95
2022-11-15T08:44:37.814Z,4.97
2022-11-15T08:47:26.418Z,5.28
2022-11-15T08:50:11.479Z,4.85
2022-11-15T08:52:56.626Z,4.78
2022-11-15T08:55:41.988Z,6.20
2022-11-15T08:58:27.188Z,5.10
2022-11-15T09:01:20.006Z,4.30
2022-11-15T09:04:05.218Z,4.85
2022-11-15T09:06:50.159Z,4.95
2022-11-15T09:09:35.511Z,5.93
2022-11-15T09:12:20.370Z,5.97
2022-11-15T09:15:07.199Z,5.47
2022-11-15T09:17:52.352Z,7.38
2022-11-15T09:20:37.616Z,6.20
2022-11-15T09:23:22.937Z,6.03
2022-11-15T09:26:08.448Z,5.82
2022-11-15T09:28:56.232Z,6.35
2022-11-15T09:31:41.236Z,6.15
2022-11-15T09:34:26.998Z,6.13
2022-11-15T09:37:13.199Z,7.00
2022-11-15T09:39:58.362Z,4.75
2022-11-15T09:43:00.210Z,5.72
2022-11-15T09:46:16.734Z,6.03
2022-11-15T09:49:16.695Z,6.75
2022-11-15T09:52:09.920Z,4.55
2022-11-15T09:54:52.928Z,4.53
2022-11-15T09:57:31.981Z,5.05
2022-11-15T10:03:18.192Z,5.00
2022-11-15T10:05:47.137Z,4.40
2022-11-15T10:08:24.091Z,5.38
2022-11-15T10:11:09.683Z,5.68
2022-11-15T10:13:43.053Z,5.60
2022-11-15T10:16:50.704Z,4.68
2022-11-15T10:19:41.640Z,5.38
2022-11-15T10:22:27.398Z,4.63
2022-11-15T10:25:11.606Z,4.47
2022-11-15T10:27:38.540Z,4.43
2022-11-15T10:30:15.487Z,4.72
2022-11-15T10:32:44.280Z,4.10
2022-11-15T10:35:23.658Z,4.80
2022-11-15T10:37:50.276Z,4.88
2022-11-15T10:40:25.155Z,4.28
2022-11-15T10:43:13.476Z,4.57
2022-11-15T10:45:40.106Z,4.32
2022-11-15T10:48:12.743Z,4.60
2022-11-15T10:50:40.891Z,4.25
2022-11-15T10:53:16.568Z,4.68
2022-11-15T10:58:42.484Z,3.90
2022-11-15T11:01:27.428Z,3.80
2022-11-15T11:04:02.611Z,4.00
2022-11-15T11:06:30.014Z,4.13
2022-11-15T11:09:04.996Z,3.67
2022-11-15T11:11:49.089Z,4.45
2022-11-15T11:14:35.833Z,4.53
2022-11-15T11:17:24.715Z,4.07
2022-11-15T11:20:12.260Z,4.35
2022-11-15T11:22:41.820Z,3.60
2022-11-15T11:25:23.990Z,3.63
2022-11-15T11:28:12.204Z,4.43
2022-11-15T11:30:50.242Z,4.00
2022-11-15T11:33:21.791Z,3.88
2022-11-15T11:36:33.382Z,4.50
2022-11-15T11:39:47.941Z,3.67
2022-11-15T11:42:33.618Z,4.28
2022-11-15T11:45:11.265Z,3.35
2022-11-15T11:47:58.298Z,3.58
2022-11-15T11:50:28.510Z,3.95
2022-11-15T11:53:04.401Z,4.07
2022-11-15T11:55:39.615Z,3.95
2022-11-15T11:58:18.763Z,3.75
2022-11-15T12:01:21.195Z,3.30
2022-11-15T12:03:57.852Z,3.83
2022-11-15T12:06:30.637Z,3.50
2022-11-15T12:09:06.472Z,4.15
2022-11-15T12:12:00.456Z,4.20
2022-11-15T12:14:34.284Z,3.33
2022-11-15T12:17:01.163Z,3.42
2022-11-15T12:19:28.073Z,3.53
2022-11-15T12:22:01.578Z,3.25
2022-11-15T12:24:52.295Z,3.92
2022-11-15T12:27:39.549Z,3.00
2022-11-15T12:30:13.373Z,3.72
2022-11-15T12:32:50.954Z,4.13
2022-11-15T12:35:43.320Z,3.63
2022-11-15T12:38:11.740Z,3.20
2022-11-15T12:40:40.410Z,3.47
2022-11-15T12:43:09.686Z,3.38
2022-11-15T12:45:38.362Z,3.35
2022-11-15T12:48:17.232Z,3.80
2022-11-15T12:50:56.099Z,3.20
2022-11-15T12:53:25.638Z,3.47
2022-11-15T12:56:04.349Z,3.83
2022-11-15T12:58:57.373Z,3.25
2022-11-15T13:01:30.071Z,2.88
2022-11-15T13:04:21.062Z,3.42
2022-11-15T13:06:58.110Z,3.40
2022-11-15T13:09:36.680Z,3.30
2022-11-15T13:12:35.200Z,2.80
2022-11-15T13:15:14.061Z,2.95
2022-11-15T13:17:51.027Z,2.30
2022-11-15T13:20:17.487Z,2.90
2022-11-15T13:22:52.888Z,3.35
2022-11-15T13:25:22.327Z,2.72
2022-11-15T13:27:50.128Z,2.95
2022-11-15T13:30:25.108Z,2.60
2022-11-15T13:32:52.466Z,2.90
2022-11-15T13:35:23.761Z,3.45
2022-11-15T13:37:51.789Z,3.20
2022-11-15T13:40:31.139Z,2.47
2022-11-15T13:42:59.306Z,3.17
2022-11-15T13:45:27.282Z,3.40
2022-11-15T13:47:59.863Z,2.85
2022-11-15T13:50:30.350Z,2.83
2022-11-15T13:53:00.114Z,2.85
2022-11-15T13:55:27.022Z,3.20
2022-11-15T13:57:59.284Z,2.92
2022-11-15T14:00:28.798Z,2.92
2022-11-15T14:02:56.440Z,2.78
2022-11-15T14:05:24.935Z,2.65
2022-11-15T14:07:56.992Z,2.40
2022-11-15T14:10:30.952Z,3.67
2022-11-15T14:12:58.034Z,3.03
2022-11-15T14:15:36.254Z,3.33
2022-11-15T14:18:03.455Z,2.88
2022-11-15T14:20:36.091Z,3.08
2022-11-15T14:23:25.184Z,2.75
2022-11-15T14:25:56.666Z,2.78
2022-11-15T14:28:23.169Z,2.53
2022-11-15T14:30:51.606Z,2.17
2022-11-15T14:33:26.118Z,2.80
2022-11-15T14:35:53.526Z,2.42
2022-11-15T14:38:20.135Z,3.10
2022-11-15T14:40:46.809Z,2.88
2022-11-15T14:43:15.638Z,2.30
2022-11-15T14:45:42.531Z,2.30
2022-11-15T14:48:09.257Z,2.55
2022-11-15T14:50:36.458Z,2.42
2022-11-15T14:53:04.177Z,2.78
2022-11-15T14:55:36.089Z,2.75
2022-11-15T14:58:04.179Z,2.60
2022-11-15T15:00:35.544Z,2.50
2022-11-15T15:03:05.091Z,2.13
2022-11-15T15:05:36.404Z,2.25
2022-11-15T15:08:03.492Z,2.13
2022-11-15T15:10:41.211Z,2.88
2022-11-15T15:13:24.176Z,2.40
2022-11-15T15:15:52.340Z,2.17
2022-11-15T15:18:20.860Z,1.90
2022-11-15T15:23:19.752Z,2.20
2022-11-15T15:25:57.885Z,2.53
2022-11-15T15:28:33.073Z,3.25
2022-11-15T15:31:01.346Z,2.40
2022-11-15T15:33:28.164Z,3.22
2022-11-15T15:35:54.908Z,3.25
2022-11-15T15:38:25.045Z,3.10
2022-11-15T15:40:52.253Z,3.08
2022-11-15T15:43:20.981Z,2.65
2022-11-15T15:45:47.642Z,2.83
2022-11-15T15:48:17.977Z,3.13
2022-11-15T15:50:46.656Z,3.38
2022-11-15T15:53:14.534Z,3.70
2022-11-15T15:55:41.905Z,3.38
2022-11-15T15:58:10.058Z,3.53
2022-11-15T16:00:38.133Z,3.53
2022-11-15T16:03:04.769Z,4.05
2022-11-15T16:05:31.373Z,4.65
2022-11-15T16:08:01.248Z,4.38
2022-11-15T16:10:34.649Z,3.67
2022-11-15T16:13:02.795Z,4.13
2022-11-15T16:15:38.594Z,4.03
2022-11-15T16:18:06.166Z,4.72
2022-11-15T16:20:40.323Z,4.57
2022-11-15T16:23:09.976Z,4.65
2022-11-15T16:25:41.044Z,5.05
2022-11-15T16:28:18.271Z,4.03
2022-11-15T16:30:45.111Z,4.60
2022-11-15T16:33:11.911Z,6.10
2022-11-15T16:35:38.441Z,5.20
2022-11-15T16:38:04.977Z,4.70
2022-11-15T16:40:34.074Z,5.90
2022-11-15T16:43:02.889Z,5.53
2022-11-15T16:45:29.584Z,6.35
2022-11-15T16:47:56.537Z,7.03
2022-11-15T16:50:29.197Z,5.78
2022-11-15T16:52:57.729Z,5.13
2022-11-15T16:55:26.423Z,5.93
2022-11-15T16:57:53.040Z,6.88
2022-11-15T17:00:20.149Z,6.45
2022-11-15T17:02:48.332Z,6.60
2022-11-15T17:05:20.121Z,6.60
2022-11-15T17:07:54.149Z,6.75
2022-11-15T17:10:26.252Z,6.95
2022-11-15T17:12:53.561Z,7.13
2022-11-15T17:15:20.101Z,6.82
2022-11-15T17:17:54.319Z,6.68
2022-11-15T17:20:22.978Z,7.72
2022-11-15T17:22:49.477Z,6.53
2022-11-15T17:25:16.281Z,7.28
2022-11-15T17:27:42.890Z,7.93
2022-11-15T17:30:11.028Z,7.40
2022-11-15T17:32:37.744Z,7.05
2022-11-15T17:35:11.961Z,6.90
2022-11-15T17:37:40.405Z,7.32
2022-11-15T17:40:10.093Z,9.80
2022-11-15T17:42:36.684Z,8.27
2022-11-15T17:45:09.334Z,9.20
2022-11-15T17:47:36.671Z,7.15
2022-11-15T17:50:03.609Z,6.18
2022-11-15T17:52:30.176Z,7.05
2022-11-15T17:54:56.739Z,6.32
2022-11-15T17:57:23.322Z,6.43
2022-11-15T17:59:49.887Z,7.10
2022-11-15T18:02:16.462Z,6.70
2022-11-15T18:04:43.018Z,6.63
2022-11-15T18:07:11.563Z,8.45
2022-11-15T18:09:42.132Z,7.53
2022-11-15T18:12:08.995Z,6.53
2022-11-15T18:14:35.565Z,6.63
2022-11-15T18:17:02.080Z,6.38
2022-11-15T18:19:28.587Z,7.40
2022-11-15T18:21:58.877Z,6.45
2022-11-15T18:24:27.942Z,7.00
2022-11-15T18:26:54.575Z,6.43
2022-11-15T18:29:21.543Z,6.30
2022-11-15T18:31:50.410Z,7.85
2022-11-15T18:34:17.548Z,6.20
2022-11-15T18:36:44.170Z,6.15
2022-11-15T18:39:16.212Z,7.32
2022-11-15T18:41:44.397Z,6.75
2022-11-15T18:44:10.899Z,9.43
2022-11-15T18:46:39.154Z,6.65
2022-11-15T18:49:07.631Z,6.45
2022-11-15T18:51:35.854Z,8.02
2022-11-15T18:54:02.558Z,7.85
2022-11-15T18:56:31.133Z,7.32
2022-11-15T18:58:59.483Z,8.13
2022-11-15T19:01:34.749Z,7.13
2022-11-15T19:04:20.613Z,6.88
2022-11-15T19:06:48.708Z,9.30
2022-11-15T19:09:17.196Z,6.13
2022-11-15T19:11:44.870Z,6.50
2022-11-15T19:14:13.143Z,8.60
2022-11-15T19:16:41.844Z,6.93
2022-11-15T19:19:13.027Z,7.47
2022-11-15T19:21:39.596Z,7.63
2022-11-15T19:24:06.411Z,7.80
2022-11-15T19:26:32.970Z,6.00
2022-11-15T19:29:01.111Z,8.05
2022-11-15T19:31:29.174Z,6.95
2022-11-15T19:33:56.233Z,6.38
2022-11-15T19:36:49.883Z,4.90
2022-11-15T19:39:18.368Z,6.10
2022-11-15T19:41:45.586Z,7.13
2022-11-15T19:44:12.937Z,7.28
2022-11-15T19:46:40.057Z,6.25
2022-11-15T19:49:10.784Z,6.32
2022-11-15T19:51:38.994Z,6.72
2022-11-15T19:54:09.753Z,5.22
2022-11-15T19:56:36.839Z,6.07
2022-11-15T19:59:04.802Z,6.72
2022-11-15T20:01:33.728Z,5.00
2022-11-15T20:04:00.674Z,6.40
2022-11-15T20:06:35.786Z,4.13
2022-11-15T20:09:02.862Z,5.43
2022-11-15T20:11:29.371Z,6.20
2022-11-15T20:14:01.769Z,5.43
2022-11-15T20:16:29.190Z,5.80
2022-11-15T20:18:55.740Z,5.93
2022-11-15T20:21:22.395Z,5.30
2022-11-15T20:23:50.740Z,5.15
2022-11-15T20:26:18.453Z,5.65
2022-11-15T20:28:45.207Z,6.78
2022-11-15T20:31:12.152Z,4.05
2022-11-15T20:33:38.749Z,4.70
2022-11-15T20:36:11.538Z,5.90
2022-11-15T20:38:38.345Z,5.13
2022-11-15T20:41:05.286Z,4.78
2022-11-15T20:43:31.889Z,4.95
2022-11-15T20:45:58.443Z,5.40
2022-11-15T20:48:25.023Z,6.35
2022-11-15T20:50:51.683Z,5.03
2022-11-15T20:53:19.827Z,5.38
2022-11-15T20:55:48.371Z,5.28
2022-11-15T20:58:15.976Z,5.32
2022-11-15T21:00:44.656Z,4.78
2022-11-15T21:03:11.795Z,5.57
2022-11-15T21:05:39.617Z,5.95
2022-11-15T21:08:07.133Z,5.22
2022-11-15T21:10:52.389Z,4.47
2022-11-15T21:13:19.080Z,4.80
2022-11-15T21:15:45.578Z,4.93
2022-11-15T21:18:12.703Z,5.28
2022-11-15T21:20:39.277Z,4.68
2022-11-15T21:23:05.904Z,4.60
2022-11-15T21:25:35.355Z,5.20
2022-11-15T21:28:01.884Z,5.68
2022-11-15T21:30:28.463Z,5.05
2022-11-15T21:32:55.012Z,4.82
2022-11-15T21:35:22.531Z,5.30
2022-11-15T21:37:55.014Z,4.97
2022-11-15T21:40:23.183Z,5.18
2022-11-15T21:42:49.702Z,5.78
2022-11-15T21:45:16.497Z,5.13
2022-11-15T21:47:46.088Z,6.68
2022-11-15T21:50:13.643Z,5.60
2022-11-15T21:52:40.546Z,5.30
2022-11-15T21:55:07.840Z,5.97
2022-11-15T21:57:34.377Z,4.43
2022-11-15T22:00:19.597Z,6.47
2022-11-15T22:02:46.076Z,6.22
2022-11-15T22:05:12.557Z,6.78
2022-11-15T22:07:39.077Z,5.32
2022-11-15T22:10:06.311Z,7.40
2022-11-15T22:12:32.791Z,5.63
2022-11-15T22:14:59.269Z,6.22
2022-11-15T22:17:45.799Z,5.70
2022-11-15T22:20:37.772Z,5.43
2022-11-15T22:22:59.867Z,6.07
2022-11-15T22:25:26.993Z,6.32
2022-11-15T22:27:54.723Z,6.70
2022-11-15T22:30:21.993Z,5.47
2022-11-15T22:32:48.671Z,5.55
2022-11-15T22:35:15.568Z,6.80
2022-11-15T22:37:42.153Z,5.72
2022-11-15T22:40:09.456Z,6.78
2022-11-15T22:42:36.050Z,5.85
2022-11-15T22:45:02.700Z,4.22
2022-11-15T22:47:29.362Z,4.57
2022-11-15T22:49:55.941Z,6.15
2022-11-15T22:52:22.527Z,5.57
2022-11-15T22:54:49.163Z,5.60
2022-11-15T22:57:15.806Z,5.57
2022-11-15T22:59:42.508Z,4.70
2022-11-15T23:02:09.275Z,4.20
2022-11-15T23:04:35.874Z,5.80
2022-11-15T23:07:02.514Z,5.43
2022-11-15T23:09:29.107Z,5.43
2022-11-15T23:12:13.997Z,6.93
2022-11-15T23:14:40.564Z,7.43
2022-11-15T23:17:07.177Z,6.22
2022-11-15T23:19:33.783Z,5.10
2022-11-15T23:22:19.053Z,5.88
2022-11-15T23:24:45.653Z,5.50
2022-11-15T23:27:15.186Z,3.58
2022-11-15T23:30:00.374Z,5.07
2022-11-15T23:32:45.581Z,5.63
2022-11-15T23:35:12.484Z,5.30
2022-11-15T23:37:39.252Z,5.05
2022-11-15T23:40:06.596Z,4.10
2022-11-15T23:42:33.167Z,5.15
2022-11-15T23:44:59.765Z,5.63
2022-11-15T23:47:26.627Z,4.13
2022-11-15T23:49:53.226Z,4.22
2022-11-15T23:52:20.231Z,4.97
2022-11-15T23:54:46.863Z,5.28
2022-11-15T23:57:13.483Z,4.30
2022-11-15T23:59:43.495Z,5.95
